sensor_id;sensor_type;location;lat;lon;timestamp;pressure;altitude;pressure_sealevel;temperature;humidity
63691;BME280;49837;57.280;27.070;2023-10-13T00:00:35;99037.64;;;6.84;100.0
63691;BME280;49837;57.280;27.070;2023-10-13T00:01:36;99038.44;;;6.83;100.0
63691;BME280;49837;57.280;27.070;2023-10-13T00:02:36;99039.45;;;6.74;100.0
63691;BME280;49837;57.280;27.070;2023-10-13T00:03:36;99037.53;;;6.7;100.0
63691;BME280;49837;57.280;27.070;2023-10-13T00:04:37;99043.44;;;6.74;100.0
63691;BME280;49837;57.280;27.070;2023-10-13T00:05:39;99050.39;;;6.72;100.0
63691;BME280;49837;57.280;27.070;2023-10-13T00:06:38;99049.09;;;6.66;100.0
63691;BME280;49837;57.280;27.070;2023-10-13T00:07:38;99048.59;;;6.6;100.0
63691;BME280;49837;57.280;27.070;2023-10-13T00:08:38;99057.94;;;6.61;100.0
63691;BME280;49837;57.280;27.070;2023-10-13T00:09:39;99057.8;;;6.6;100.0
63691;BME280;49837;57.280;27.070;2023-10-13T00:10:39;99060.15;;;6.56;100.0
63691;BME280;49837;57.280;27.070;2023-10-13T00:11:41;99061.34;;;6.55;100.0
63691;BME280;49837;57.280;27.070;2023-10-13T00:12:40;99063.76;;;6.55;100.0
63691;BME280;49837;57.280;27.070;2023-10-13T00:13:41;99064.72;;;6.53;100.0
63691;BME280;49837;57.280;27.070;2023-10-13T00:14:41;99068.22;;;6.5;100.0
63691;BME280;49837;57.280;27.070;2023-10-13T00:15:46;99070.59;;;6.43;100.0
63691;BME280;49837;57.280;27.070;2023-10-13T00:16:44;99071.23;;;6.38;100.0
63691;BME280;49837;57.280;27.070;2023-10-13T00:17:44;99064.87;;;6.34;100.0
63691;BME280;49837;57.280;27.070;2023-10-13T00:18:44;99069.31;;;6.35;100.0
63691;BME280;49837;57.280;27.070;2023-10-13T00:19:45;99072.84;;;6.31;100.0
63691;BME280;49837;57.280;27.070;2023-10-13T00:20:45;99078.05;;;6.25;100.0
63691;BME280;49837;57.280;27.070;2023-10-13T00:21:46;99079.56;;;6.19;100.0
63691;BME280;49837;57.280;27.070;2023-10-13T00:22:46;99081.7;;;6.16;100.0
63691;BME280;49837;57.280;27.070;2023-10-13T00:23:46;99083.94;;;6.13;100.0
63691;BME280;49837;57.280;27.070;2023-10-13T00:24:47;99084.0;;;6.11;100.0
63691;BME280;49837;57.280;27.070;2023-10-13T00:25:49;99088.97;;;6.11;100.0
63691;BME280;49837;57.280;27.070;2023-10-13T00:26:48;99089.07;;;6.05;100.0
63691;BME280;49837;57.280;27.070;2023-10-13T00:27:48;99094.62;;;6.02;100.0
63691;BME280;49837;57.280;27.070;2023-10-13T00:28:48;99091.83;;;6.01;100.0
63691;BME280;49837;57.280;27.070;2023-10-13T00:29:49;99096.75;;;5.96;100.0
63691;BME280;49837;57.280;27.070;2023-10-13T00:30:53;99095.88;;;5.95;100.0
63691;BME280;49837;57.280;27.070;2023-10-13T00:31:51;99097.91;;;5.98;100.0
63691;BME280;49837;57.280;27.070;2023-10-13T00:32:52;99097.53;;;5.94;100.0
63691;BME280;49837;57.280;27.070;2023-10-13T00:33:52;99100.48;;;5.89;100.0
63691;BME280;49837;57.280;27.070;2023-10-13T00:34:52;99101.53;;;5.87;100.0
63691;BME280;49837;57.280;27.070;2023-10-13T00:35:52;99104.2;;;5.84;100.0
63691;BME280;49837;57.280;27.070;2023-10-13T00:36:53;99103.14;;;5.83;100.0
63691;BME280;49837;57.280;27.070;2023-10-13T00:37:54;99104.69;;;5.84;100.0
63691;BME280;49837;57.280;27.070;2023-10-13T00:38:54;99103.19;;;5.87;100.0
63691;BME280;49837;57.280;27.070;2023-10-13T00:39:54;99106.38;;;5.83;100.0
63691;BME280;49837;57.280;27.070;2023-10-13T00:40:55;99107.96;;;5.83;100.0
63691;BME280;49837;57.280;27.070;2023-10-13T00:41:55;99107.95;;;5.76;100.0
63691;BME280;49837;57.280;27.070;2023-10-13T00:42:56;99103.42;;;5.75;100.0
63691;BME280;49837;57.280;27.070;2023-10-13T00:43:56;99108.41;;;5.72;100.0
63691;BME280;49837;57.280;27.070;2023-10-13T00:44:56;99107.98;;;5.69;100.0
63691;BME280;49837;57.280;27.070;2023-10-13T00:45:58;99104.84;;;5.69;100.0
63691;BME280;49837;57.280;27.070;2023-10-13T00:46:57;99107.7;;;5.67;100.0
63691;BME280;49837;57.280;27.070;2023-10-13T00:47:57;99107.89;;;5.6;100.0
63691;BME280;49837;57.280;27.070;2023-10-13T00:48:58;99109.89;;;5.56;100.0
63691;BME280;49837;57.280;27.070;2023-10-13T00:49:58;99118.73;;;5.53;100.0
63691;BME280;49837;57.280;27.070;2023-10-13T00:51:06;99121.94;;;5.48;100.0
63691;BME280;49837;57.280;27.070;2023-10-13T00:52:03;99123.34;;;5.49;100.0
63691;BME280;49837;57.280;27.070;2023-10-13T00:53:04;99126.09;;;5.47;100.0
63691;BME280;49837;57.280;27.070;2023-10-13T00:54:05;99124.8;;;5.5;100.0
63691;BME280;49837;57.280;27.070;2023-10-13T00:55:05;99126.97;;;5.52;100.0
63691;BME280;49837;57.280;27.070;2023-10-13T00:56:06;99132.12;;;5.51;100.0
63691;BME280;49837;57.280;27.070;2023-10-13T00:57:06;99127.99;;;5.57;100.0
63691;BME280;49837;57.280;27.070;2023-10-13T00:58:06;99132.84;;;5.61;100.0
63691;BME280;49837;57.280;27.070;2023-10-13T00:59:06;99129.56;;;5.61;100.0
63691;BME280;49837;57.280;27.070;2023-10-13T01:00:07;99133.58;;;5.61;100.0
63691;BME280;49837;57.280;27.070;2023-10-13T01:01:07;99138.45;;;5.59;100.0
63691;BME280;49837;57.280;27.070;2023-10-13T01:02:07;99133.09;;;5.58;100.0
63691;BME280;49837;57.280;27.070;2023-10-13T01:03:08;99137.34;;;5.56;100.0
63691;BME280;49837;57.280;27.070;2023-10-13T01:04:09;99139.65;;;5.54;100.0
63691;BME280;49837;57.280;27.070;2023-10-13T01:05:08;99138.85;;;5.49;100.0
63691;BME280;49837;57.280;27.070;2023-10-13T01:06:12;99138.36;;;5.46;100.0
63691;BME280;49837;57.280;27.070;2023-10-13T01:07:09;99143.52;;;5.45;100.0
63691;BME280;49837;57.280;27.070;2023-10-13T01:08:10;99147.99;;;5.51;100.0
63691;BME280;49837;57.280;27.070;2023-10-13T01:09:11;99144.62;;;5.51;100.0
63691;BME280;49837;57.280;27.070;2023-10-13T01:10:10;99143.48;;;5.46;100.0
63691;BME280;49837;57.280;27.070;2023-10-13T01:11:11;99145.84;;;5.55;100.0
63691;BME280;49837;57.280;27.070;2023-10-13T01:12:11;99147.73;;;5.55;100.0
63691;BME280;49837;57.280;27.070;2023-10-13T01:13:12;99148.33;;;5.47;100.0
63691;BME280;49837;57.280;27.070;2023-10-13T01:14:12;99146.66;;;5.41;100.0
63691;BME280;49837;57.280;27.070;2023-10-13T01:15:13;99148.2;;;5.4;100.0
63691;BME280;49837;57.280;27.070;2023-10-13T01:16:13;99150.27;;;5.36;100.0
63691;BME280;49837;57.280;27.070;2023-10-13T01:17:13;99149.23;;;5.35;100.0
63691;BME280;49837;57.280;27.070;2023-10-13T01:18:14;99150.08;;;5.34;100.0
63691;BME280;49837;57.280;27.070;2023-10-13T01:19:15;99147.16;;;5.32;100.0
63691;BME280;49837;57.280;27.070;2023-10-13T01:20:15;99153.53;;;5.31;100.0
63691;BME280;49837;57.280;27.070;2023-10-13T01:21:16;99153.39;;;5.3;100.0
63691;BME280;49837;57.280;27.070;2023-10-13T01:22:15;99154.12;;;5.23;100.0
63691;BME280;49837;57.280;27.070;2023-10-13T01:23:15;99149.64;;;5.18;100.0
63691;BME280;49837;57.280;27.070;2023-10-13T01:24:16;99154.77;;;5.18;100.0
63691;BME280;49837;57.280;27.070;2023-10-13T01:25:16;99152.09;;;5.19;100.0
63691;BME280;49837;57.280;27.070;2023-10-13T01:26:17;99152.41;;;5.16;100.0
63691;BME280;49837;57.280;27.070;2023-10-13T01:27:17;99155.03;;;5.1;100.0
63691;BME280;49837;57.280;27.070;2023-10-13T01:28:17;99157.94;;;5.1;100.0
63691;BME280;49837;57.280;27.070;2023-10-13T01:29:18;99158.38;;;5.11;100.0
63691;BME280;49837;57.280;27.070;2023-10-13T01:30:18;99162.39;;;5.13;100.0
63691;BME280;49837;57.280;27.070;2023-10-13T01:31:19;99158.69;;;5.09;100.0
63691;BME280;49837;57.280;27.070;2023-10-13T01:32:21;99164.95;;;5.07;100.0
63691;BME280;49837;57.280;27.070;2023-10-13T01:33:19;99161.23;;;5.06;100.0
63691;BME280;49837;57.280;27.070;2023-10-13T01:34:20;99166.6;;;5.07;100.0
63691;BME280;49837;57.280;27.070;2023-10-13T01:35:20;99166.93;;;4.99;100.0
63691;BME280;49837;57.280;27.070;2023-10-13T01:36:21;99166.69;;;4.91;100.0
63691;BME280;49837;57.280;27.070;2023-10-13T01:37:21;99169.12;;;4.94;100.0
63691;BME280;49837;57.280;27.070;2023-10-13T01:38:21;99169.59;;;4.92;100.0
63691;BME280;49837;57.280;27.070;2023-10-13T01:39:23;99169.42;;;4.91;100.0
63691;BME280;49837;57.280;27.070;2023-10-13T01:40:22;99170.81;;;4.91;100.0
63691;BME280;49837;57.280;27.070;2023-10-13T01:41:22;99176.84;;;4.93;100.0
63691;BME280;49837;57.280;27.070;2023-10-13T01:42:23;99180.36;;;4.94;100.0
63691;BME280;49837;57.280;27.070;2023-10-13T01:43:23;99180.43;;;4.98;100.0
63691;BME280;49837;57.280;27.070;2023-10-13T01:44:24;99183.77;;;4.94;100.0
63691;BME280;49837;57.280;27.070;2023-10-13T01:45:24;99187.32;;;4.93;100.0
63691;BME280;49837;57.280;27.070;2023-10-13T01:46:24;99187.72;;;4.93;100.0
63691;BME280;49837;57.280;27.070;2023-10-13T01:47:25;99186.22;;;4.94;100.0
63691;BME280;49837;57.280;27.070;2023-10-13T01:48:25;99192.55;;;5.03;100.0
63691;BME280;49837;57.280;27.070;2023-10-13T01:49:26;99193.52;;;5.0;100.0
63691;BME280;49837;57.280;27.070;2023-10-13T01:50:26;99196.95;;;4.98;100.0
63691;BME280;49837;57.280;27.070;2023-10-13T01:51:26;99199.48;;;4.96;100.0
63691;BME280;49837;57.280;27.070;2023-10-13T01:52:27;99199.77;;;4.95;100.0
63691;BME280;49837;57.280;27.070;2023-10-13T01:53:27;99199.14;;;5.01;100.0
63691;BME280;49837;57.280;27.070;2023-10-13T01:54:27;99201.23;;;4.99;100.0
63691;BME280;49837;57.280;27.070;2023-10-13T01:55:28;99199.04;;;5.04;100.0
63691;BME280;49837;57.280;27.070;2023-10-13T01:56:28;99201.64;;;5.03;100.0
63691;BME280;49837;57.280;27.070;2023-10-13T01:57:29;99207.05;;;5.02;100.0
63691;BME280;49837;57.280;27.070;2023-10-13T01:58:29;99208.77;;;4.98;100.0
63691;BME280;49837;57.280;27.070;2023-10-13T01:59:29;99210.0;;;5.09;100.0
63691;BME280;49837;57.280;27.070;2023-10-13T02:00:30;99207.83;;;5.07;100.0
63691;BME280;49837;57.280;27.070;2023-10-13T02:01:34;99211.56;;;5.06;100.0
63691;BME280;49837;57.280;27.070;2023-10-13T02:02:31;99217.08;;;5.0;100.0
63691;BME280;49837;57.280;27.070;2023-10-13T02:03:32;99216.92;;;5.11;100.0
63691;BME280;49837;57.280;27.070;2023-10-13T02:04:32;99222.81;;;5.05;100.0
63691;BME280;49837;57.280;27.070;2023-10-13T02:05:32;99220.41;;;5.02;100.0
63691;BME280;49837;57.280;27.070;2023-10-13T02:06:35;99225.53;;;5.03;100.0
63691;BME280;49837;57.280;27.070;2023-10-13T02:07:33;99229.7;;;5.08;100.0
63691;BME280;49837;57.280;27.070;2023-10-13T02:08:33;99234.3;;;5.06;100.0
63691;BME280;49837;57.280;27.070;2023-10-13T02:09:34;99234.09;;;5.05;100.0
63691;BME280;49837;57.280;27.070;2023-10-13T02:10:34;99238.36;;;5.09;100.0
63691;BME280;49837;57.280;27.070;2023-10-13T02:11:35;99239.38;;;5.11;100.0
63691;BME280;49837;57.280;27.070;2023-10-13T02:12:35;99235.46;;;5.13;100.0
63691;BME280;49837;57.280;27.070;2023-10-13T02:13:35;99239.5;;;5.13;100.0
63691;BME280;49837;57.280;27.070;2023-10-13T02:14:36;99247.48;;;5.11;100.0
63691;BME280;49837;57.280;27.070;2023-10-13T02:15:36;99252.23;;;5.14;100.0
63691;BME280;49837;57.280;27.070;2023-10-13T02:16:37;99249.72;;;5.11;100.0
63691;BME280;49837;57.280;27.070;2023-10-13T02:17:37;99247.78;;;5.09;100.0
63691;BME280;49837;57.280;27.070;2023-10-13T02:18:37;99252.59;;;5.05;100.0
63691;BME280;49837;57.280;27.070;2023-10-13T02:19:38;99257.1;;;5.03;100.0
63691;BME280;49837;57.280;27.070;2023-10-13T02:20:38;99263.62;;;4.91;100.0
63691;BME280;49837;57.280;27.070;2023-10-13T02:21:38;99261.1;;;4.85;100.0
63691;BME280;49837;57.280;27.070;2023-10-13T02:22:39;99267.66;;;4.95;100.0
63691;BME280;49837;57.280;27.070;2023-10-13T02:23:42;99272.45;;;5.0;100.0
63691;BME280;49837;57.280;27.070;2023-10-13T02:24:40;99271.27;;;5.01;100.0
63691;BME280;49837;57.280;27.070;2023-10-13T02:25:40;99280.92;;;4.98;100.0
63691;BME280;49837;57.280;27.070;2023-10-13T02:26:41;99276.64;;;4.94;100.0
63691;BME280;49837;57.280;27.070;2023-10-13T02:27:41;99277.59;;;4.91;100.0
63691;BME280;49837;57.280;27.070;2023-10-13T02:28:42;99280.53;;;4.96;100.0
63691;BME280;49837;57.280;27.070;2023-10-13T02:29:42;99281.19;;;4.93;100.0
63691;BME280;49837;57.280;27.070;2023-10-13T02:30:43;99278.7;;;4.89;100.0
63691;BME280;49837;57.280;27.070;2023-10-13T02:31:43;99275.38;;;4.94;100.0
63691;BME280;49837;57.280;27.070;2023-10-13T02:32:43;99280.18;;;4.94;100.0
63691;BME280;49837;57.280;27.070;2023-10-13T02:33:43;99281.55;;;4.88;100.0
63691;BME280;49837;57.280;27.070;2023-10-13T02:34:46;99278.06;;;4.88;100.0
63691;BME280;49837;57.280;27.070;2023-10-13T02:35:44;99280.94;;;4.89;100.0
63691;BME280;49837;57.280;27.070;2023-10-13T02:36:44;99282.09;;;4.93;100.0
63691;BME280;49837;57.280;27.070;2023-10-13T02:37:45;99287.59;;;4.86;100.0
63691;BME280;49837;57.280;27.070;2023-10-13T02:38:45;99289.72;;;4.84;100.0
63691;BME280;49837;57.280;27.070;2023-10-13T02:39:46;99285.36;;;4.9;100.0
63691;BME280;49837;57.280;27.070;2023-10-13T02:40:46;99289.49;;;4.99;100.0
63691;BME280;49837;57.280;27.070;2023-10-13T02:41:46;99284.84;;;5.0;100.0
63691;BME280;49837;57.280;27.070;2023-10-13T02:42:47;99292.39;;;5.07;100.0
63691;BME280;49837;57.280;27.070;2023-10-13T02:43:47;99294.06;;;5.09;100.0
63691;BME280;49837;57.280;27.070;2023-10-13T02:44:47;99293.08;;;5.09;100.0
63691;BME280;49837;57.280;27.070;2023-10-13T02:45:54;99296.89;;;5.12;100.0
63691;BME280;49837;57.280;27.070;2023-10-13T02:46:52;99297.97;;;5.12;100.0
63691;BME280;49837;57.280;27.070;2023-10-13T02:47:52;99301.78;;;5.12;100.0
63691;BME280;49837;57.280;27.070;2023-10-13T02:48:53;99300.08;;;5.14;100.0
63691;BME280;49837;57.280;27.070;2023-10-13T02:49:53;99303.08;;;5.13;100.0
63691;BME280;49837;57.280;27.070;2023-10-13T02:50:58;99302.58;;;5.1;100.0
63691;BME280;49837;57.280;27.070;2023-10-13T02:51:55;99303.45;;;5.11;100.0
63691;BME280;49837;57.280;27.070;2023-10-13T02:52:55;99305.24;;;5.09;100.0
63691;BME280;49837;57.280;27.070;2023-10-13T02:53:56;99310.27;;;5.14;100.0
63691;BME280;49837;57.280;27.070;2023-10-13T02:54:57;99310.73;;;5.18;100.0
63691;BME280;49837;57.280;27.070;2023-10-13T02:55:57;99309.41;;;5.14;100.0
63691;BME280;49837;57.280;27.070;2023-10-13T02:56:57;99311.73;;;5.1;100.0
63691;BME280;49837;57.280;27.070;2023-10-13T02:57:57;99310.94;;;5.12;100.0
63691;BME280;49837;57.280;27.070;2023-10-13T02:58:58;99316.23;;;5.13;100.0
63691;BME280;49837;57.280;27.070;2023-10-13T02:59:58;99319.84;;;5.1;100.0
63691;BME280;49837;57.280;27.070;2023-10-13T03:00:59;99319.03;;;5.01;100.0
63691;BME280;49837;57.280;27.070;2023-10-13T03:02:02;99322.53;;;4.95;100.0
63691;BME280;49837;57.280;27.070;2023-10-13T03:02:59;99319.65;;;4.95;100.0
63691;BME280;49837;57.280;27.070;2023-10-13T03:04:01;99323.16;;;5.01;100.0
63691;BME280;49837;57.280;27.070;2023-10-13T03:05:00;99324.88;;;4.98;100.0
63691;BME280;49837;57.280;27.070;2023-10-13T03:06:01;99326.46;;;4.97;100.0
63691;BME280;49837;57.280;27.070;2023-10-13T03:07:03;99330.7;;;4.96;100.0
63691;BME280;49837;57.280;27.070;2023-10-13T03:08:01;99331.62;;;4.96;100.0
63691;BME280;49837;57.280;27.070;2023-10-13T03:09:04;99331.5;;;4.93;100.0
63691;BME280;49837;57.280;27.070;2023-10-13T03:10:03;99336.95;;;4.93;100.0
63691;BME280;49837;57.280;27.070;2023-10-13T03:11:02;99341.56;;;4.94;100.0
63691;BME280;49837;57.280;27.070;2023-10-13T03:12:03;99340.63;;;4.92;100.0
63691;BME280;49837;57.280;27.070;2023-10-13T03:13:03;99339.72;;;4.95;100.0
63691;BME280;49837;57.280;27.070;2023-10-13T03:14:04;99343.44;;;4.96;100.0
63691;BME280;49837;57.280;27.070;2023-10-13T03:15:05;99342.41;;;4.98;100.0
63691;BME280;49837;57.280;27.070;2023-10-13T03:17:08;99342.59;;;4.84;100.0
63691;BME280;49837;57.280;27.070;2023-10-13T03:18:09;99343.27;;;4.79;100.0
63691;BME280;49837;57.280;27.070;2023-10-13T03:19:09;99346.16;;;4.74;100.0
63691;BME280;49837;57.280;27.070;2023-10-13T03:20:10;99341.76;;;4.72;100.0
63691;BME280;49837;57.280;27.070;2023-10-13T03:21:10;99342.01;;;4.75;100.0
63691;BME280;49837;57.280;27.070;2023-10-13T03:22:10;99349.95;;;4.74;100.0
63691;BME280;49837;57.280;27.070;2023-10-13T03:23:11;99345.89;;;4.72;100.0
63691;BME280;49837;57.280;27.070;2023-10-13T03:24:11;99349.59;;;4.68;100.0
63691;BME280;49837;57.280;27.070;2023-10-13T03:25:15;99349.2;;;4.67;100.0
63691;BME280;49837;57.280;27.070;2023-10-13T03:26:13;99351.5;;;4.67;100.0
63691;BME280;49837;57.280;27.070;2023-10-13T03:27:14;99351.95;;;4.71;100.0
63691;BME280;49837;57.280;27.070;2023-10-13T03:28:13;99351.63;;;4.69;100.0
63691;BME280;49837;57.280;27.070;2023-10-13T03:29:14;99346.4;;;4.75;100.0
63691;BME280;49837;57.280;27.070;2023-10-13T03:30:14;99347.27;;;4.78;100.0
63691;BME280;49837;57.280;27.070;2023-10-13T03:31:14;99348.84;;;4.73;100.0
63691;BME280;49837;57.280;27.070;2023-10-13T03:32:15;99354.3;;;4.68;100.0
63691;BME280;49837;57.280;27.070;2023-10-13T03:33:15;99356.75;;;4.65;100.0
63691;BME280;49837;57.280;27.070;2023-10-13T03:34:16;99358.3;;;4.61;100.0
63691;BME280;49837;57.280;27.070;2023-10-13T03:35:16;99355.42;;;4.57;100.0
63691;BME280;49837;57.280;27.070;2023-10-13T03:36:16;99362.27;;;4.57;100.0
63691;BME280;49837;57.280;27.070;2023-10-13T03:37:17;99354.22;;;4.53;100.0
63691;BME280;49837;57.280;27.070;2023-10-13T03:38:18;99357.09;;;4.46;100.0
63691;BME280;49837;57.280;27.070;2023-10-13T03:39:18;99354.7;;;4.51;100.0
63691;BME280;49837;57.280;27.070;2023-10-13T03:40:19;99358.95;;;4.54;100.0
63691;BME280;49837;57.280;27.070;2023-10-13T03:41:19;99359.27;;;4.49;100.0
63691;BME280;49837;57.280;27.070;2023-10-13T03:42:19;99367.83;;;4.45;100.0
63691;BME280;49837;57.280;27.070;2023-10-13T03:43:20;99370.23;;;4.4;100.0
63691;BME280;49837;57.280;27.070;2023-10-13T03:44:20;99365.38;;;4.39;100.0
63691;BME280;49837;57.280;27.070;2023-10-13T03:45:20;99369.53;;;4.37;100.0
63691;BME280;49837;57.280;27.070;2023-10-13T03:46:21;99371.71;;;4.31;100.0
63691;BME280;49837;57.280;27.070;2023-10-13T03:47:21;99370.65;;;4.31;100.0
63691;BME280;49837;57.280;27.070;2023-10-13T03:48:22;99365.97;;;4.33;100.0
63691;BME280;49837;57.280;27.070;2023-10-13T03:49:22;99365.8;;;4.35;100.0
63691;BME280;49837;57.280;27.070;2023-10-13T03:50:22;99370.19;;;4.33;100.0
63691;BME280;49837;57.280;27.070;2023-10-13T03:51:23;99378.08;;;4.31;100.0
63691;BME280;49837;57.280;27.070;2023-10-13T03:52:23;99378.23;;;4.26;100.0
63691;BME280;49837;57.280;27.070;2023-10-13T03:53:23;99378.21;;;4.19;100.0
63691;BME280;49837;57.280;27.070;2023-10-13T03:54:24;99377.94;;;4.14;100.0
63691;BME280;49837;57.280;27.070;2023-10-13T03:55:25;99384.69;;;4.11;100.0
63691;BME280;49837;57.280;27.070;2023-10-13T03:56:26;99381.94;;;4.08;100.0
63691;BME280;49837;57.280;27.070;2023-10-13T03:57:28;99385.68;;;4.05;100.0
63691;BME280;49837;57.280;27.070;2023-10-13T03:58:29;99386.64;;;4.07;100.0
63691;BME280;49837;57.280;27.070;2023-10-13T03:59:29;99390.81;;;4.04;100.0
63691;BME280;49837;57.280;27.070;2023-10-13T04:00:30;99390.01;;;4.01;100.0
63691;BME280;49837;57.280;27.070;2023-10-13T04:01:30;99393.51;;;4.05;100.0
63691;BME280;49837;57.280;27.070;2023-10-13T04:02:30;99393.79;;;4.08;100.0
63691;BME280;49837;57.280;27.070;2023-10-13T04:03:31;99395.25;;;4.09;100.0
63691;BME280;49837;57.280;27.070;2023-10-13T04:04:31;99396.45;;;4.0;100.0
63691;BME280;49837;57.280;27.070;2023-10-13T04:05:32;99397.05;;;3.95;100.0
63691;BME280;49837;57.280;27.070;2023-10-13T04:06:32;99398.73;;;3.93;100.0
63691;BME280;49837;57.280;27.070;2023-10-13T04:07:33;99402.12;;;3.92;100.0
63691;BME280;49837;57.280;27.070;2023-10-13T04:08:33;99401.36;;;4.0;100.0
63691;BME280;49837;57.280;27.070;2023-10-13T04:09:35;99402.17;;;4.05;100.0
63691;BME280;49837;57.280;27.070;2023-10-13T04:10:33;99405.33;;;3.93;100.0
63691;BME280;49837;57.280;27.070;2023-10-13T04:11:34;99405.8;;;3.89;100.0
63691;BME280;49837;57.280;27.070;2023-10-13T04:12:34;99405.47;;;3.84;100.0
63691;BME280;49837;57.280;27.070;2023-10-13T04:13:34;99411.43;;;3.81;100.0
63691;BME280;49837;57.280;27.070;2023-10-13T04:14:41;99411.67;;;3.84;100.0
63691;BME280;49837;57.280;27.070;2023-10-13T04:15:39;99408.84;;;3.86;100.0
63691;BME280;49837;57.280;27.070;2023-10-13T04:16:39;99412.69;;;3.87;100.0
63691;BME280;49837;57.280;27.070;2023-10-13T04:17:40;99416.12;;;3.89;100.0
63691;BME280;49837;57.280;27.070;2023-10-13T04:18:40;99421.33;;;3.88;100.0
63691;BME280;49837;57.280;27.070;2023-10-13T04:19:41;99424.42;;;3.91;100.0
63691;BME280;49837;57.280;27.070;2023-10-13T04:20:41;99426.45;;;3.94;100.0
63691;BME280;49837;57.280;27.070;2023-10-13T04:21:41;99426.77;;;3.95;100.0
63691;BME280;49837;57.280;27.070;2023-10-13T04:22:43;99426.41;;;3.96;100.0
63691;BME280;49837;57.280;27.070;2023-10-13T04:23:42;99427.11;;;4.04;100.0
63691;BME280;49837;57.280;27.070;2023-10-13T04:24:42;99427.03;;;4.04;100.0
63691;BME280;49837;57.280;27.070;2023-10-13T04:25:43;99426.83;;;4.0;100.0
63691;BME280;49837;57.280;27.070;2023-10-13T04:26:44;99427.97;;;3.96;100.0
63691;BME280;49837;57.280;27.070;2023-10-13T04:27:44;99425.17;;;3.97;100.0
63691;BME280;49837;57.280;27.070;2023-10-13T04:28:44;99426.62;;;3.99;100.0
63691;BME280;49837;57.280;27.070;2023-10-13T04:29:44;99427.29;;;4.02;100.0
63691;BME280;49837;57.280;27.070;2023-10-13T04:30:47;99430.91;;;3.99;100.0
63691;BME280;49837;57.280;27.070;2023-10-13T04:31:45;99430.62;;;3.95;100.0
63691;BME280;49837;57.280;27.070;2023-10-13T04:32:45;99430.37;;;4.01;100.0
63691;BME280;49837;57.280;27.070;2023-10-13T04:33:46;99434.98;;;4.07;100.0
63691;BME280;49837;57.280;27.070;2023-10-13T04:34:46;99437.3;;;4.07;100.0
63691;BME280;49837;57.280;27.070;2023-10-13T04:35:46;99436.88;;;4.02;100.0
63691;BME280;49837;57.280;27.070;2023-10-13T04:36:47;99440.19;;;4.0;100.0
63691;BME280;49837;57.280;27.070;2023-10-13T04:37:47;99441.48;;;3.99;100.0
63691;BME280;49837;57.280;27.070;2023-10-13T04:38:51;99443.98;;;3.97;100.0
63691;BME280;49837;57.280;27.070;2023-10-13T04:39:49;99442.94;;;3.94;100.0
63691;BME280;49837;57.280;27.070;2023-10-13T04:40:49;99445.45;;;3.92;100.0
63691;BME280;49837;57.280;27.070;2023-10-13T04:41:50;99443.82;;;3.95;100.0
63691;BME280;49837;57.280;27.070;2023-10-13T04:42:53;99447.31;;;4.0;100.0
63691;BME280;49837;57.280;27.070;2023-10-13T04:43:51;99443.49;;;4.0;100.0
63691;BME280;49837;57.280;27.070;2023-10-13T04:44:51;99449.52;;;4.01;100.0
63691;BME280;49837;57.280;27.070;2023-10-13T04:45:52;99446.09;;;4.04;100.0
63691;BME280;49837;57.280;27.070;2023-10-13T04:46:53;99450.2;;;4.1;100.0
63691;BME280;49837;57.280;27.070;2023-10-13T04:47:52;99447.58;;;4.09;100.0
63691;BME280;49837;57.280;27.070;2023-10-13T04:48:53;99449.75;;;3.97;100.0
63691;BME280;49837;57.280;27.070;2023-10-13T04:49:53;99454.03;;;4.01;100.0
63691;BME280;49837;57.280;27.070;2023-10-13T04:51:00;99460.81;;;4.07;100.0
63691;BME280;49837;57.280;27.070;2023-10-13T04:51:59;99462.67;;;4.15;100.0
63691;BME280;49837;57.280;27.070;2023-10-13T04:52:58;99460.33;;;4.13;100.0
63691;BME280;49837;57.280;27.070;2023-10-13T04:53:58;99463.05;;;4.12;100.0
63691;BME280;49837;57.280;27.070;2023-10-13T04:54:59;99464.56;;;4.18;100.0
63691;BME280;49837;57.280;27.070;2023-10-13T04:56:00;99468.12;;;4.21;100.0
63691;BME280;49837;57.280;27.070;2023-10-13T04:57:03;99469.07;;;4.19;100.0
63691;BME280;49837;57.280;27.070;2023-10-13T04:58:00;99476.45;;;4.21;100.0
63691;BME280;49837;57.280;27.070;2023-10-13T04:59:00;99480.48;;;4.23;100.0
63691;BME280;49837;57.280;27.070;2023-10-13T05:00:03;99481.95;;;4.23;100.0
63691;BME280;49837;57.280;27.070;2023-10-13T05:01:05;99484.89;;;4.25;100.0
63691;BME280;49837;57.280;27.070;2023-10-13T05:02:02;99482.14;;;4.39;100.0
63691;BME280;49837;57.280;27.070;2023-10-13T05:03:03;99482.34;;;4.35;100.0
63691;BME280;49837;57.280;27.070;2023-10-13T05:04:03;99489.4;;;4.33;100.0
63691;BME280;49837;57.280;27.070;2023-10-13T05:05:08;99492.22;;;4.32;100.0
63691;BME280;49837;57.280;27.070;2023-10-13T05:06:06;99497.33;;;4.33;100.0
63691;BME280;49837;57.280;27.070;2023-10-13T05:07:06;99500.11;;;4.36;100.0
63691;BME280;49837;57.280;27.070;2023-10-13T05:08:07;99498.81;;;4.38;100.0
63691;BME280;49837;57.280;27.070;2023-10-13T05:09:07;99498.62;;;4.35;100.0
63691;BME280;49837;57.280;27.070;2023-10-13T05:10:07;99496.61;;;4.43;100.0
63691;BME280;49837;57.280;27.070;2023-10-13T05:11:07;99497.85;;;4.48;100.0
63691;BME280;49837;57.280;27.070;2023-10-13T05:12:08;99496.48;;;4.45;100.0
63691;BME280;49837;57.280;27.070;2023-10-13T05:13:08;99500.97;;;4.43;100.0
63691;BME280;49837;57.280;27.070;2023-10-13T05:14:09;99504.55;;;4.42;100.0
63691;BME280;49837;57.280;27.070;2023-10-13T05:15:09;99502.8;;;4.42;100.0
63691;BME280;49837;57.280;27.070;2023-10-13T05:16:09;99504.29;;;4.42;100.0
63691;BME280;49837;57.280;27.070;2023-10-13T05:17:10;99503.78;;;4.37;100.0
63691;BME280;49837;57.280;27.070;2023-10-13T05:18:10;99506.38;;;4.52;100.0
63691;BME280;49837;57.280;27.070;2023-10-13T05:19:10;99516.34;;;4.58;100.0
63691;BME280;49837;57.280;27.070;2023-10-13T05:20:11;99515.28;;;4.57;100.0
63691;BME280;49837;57.280;27.070;2023-10-13T05:21:11;99514.38;;;4.58;100.0
63691;BME280;49837;57.280;27.070;2023-10-13T05:22:12;99511.19;;;4.61;100.0